createdAt,value
2017-06-26T00:00:45.099Z,1004.12
2017-06-26T00:01:40.111Z,1004.11
2017-06-26T00:02:35.178Z,1004.14
2017-06-26T00:03:24.061Z,1004.15
2017-06-26T00:04:17.997Z,1004.17
2017-06-26T00:05:12.258Z,1004.16
2017-06-26T00:06:12.506Z,1004.12
2017-06-26T00:07:12.345Z,1004.12
2017-06-26T00:08:01.536Z,1004.15
2017-06-26T00:08:55.253Z,1004.14
2017-06-26T00:09:55.206Z,1004.15
2017-06-26T00:10:43.682Z,1004.16
2017-06-26T00:11:43.277Z,1004.16
2017-06-26T00:12:37.369Z,1004.13
2017-06-26T00:13:37.705Z,1004.15
2017-06-26T00:14:38.752Z,1004.13
2017-06-26T00:15:38.749Z,1004.06
2017-06-26T00:16:27.794Z,1004.14
2017-06-26T00:17:21.495Z,1004.18
2017-06-26T00:18:15.529Z,1004.15
2017-06-26T00:19:03.635Z,1004.16
2017-06-26T00:19:58.585Z,1004.14
2017-06-26T00:20:53.031Z,1004.12
2017-06-26T00:21:42.057Z,1004.10
2017-06-26T00:22:30.795Z,1004.07
2017-06-26T00:23:31.805Z,1004.07
2017-06-26T00:24:26.059Z,1004.10
2017-06-26T00:25:13.907Z,1004.05
2017-06-26T00:26:08.395Z,1004.05
2017-06-26T00:27:01.976Z,1004.04
2017-06-26T00:27:56.984Z,1004.09
2017-06-26T00:28:57.052Z,1004.06
2017-06-26T00:29:57.103Z,1004.07
2017-06-26T00:30:51.598Z,1004.10
2017-06-26T00:31:39.242Z,1004.11
2017-06-26T00:32:33.195Z,1004.10
2017-06-26T00:33:27.252Z,1004.10
2017-06-26T00:34:22.295Z,1004.12
2017-06-26T00:35:17.272Z,1004.09
2017-06-26T00:36:11.851Z,1004.10
2017-06-26T00:37:00.400Z,1004.11
2017-06-26T00:37:48.734Z,1004.04
2017-06-26T00:38:36.478Z,1004.12
2017-06-26T00:39:25.557Z,1004.09
2017-06-26T00:40:26.022Z,1004.16
2017-06-26T00:41:19.822Z,1004.16
2017-06-26T00:42:19.864Z,1004.19
2017-06-26T00:43:13.849Z,1004.23
2017-06-26T00:44:08.714Z,1004.25
2017-06-26T00:45:02.789Z,1004.18
2017-06-26T00:46:03.214Z,1004.15
2017-06-26T00:46:51.917Z,1004.19
2017-06-26T00:47:46.910Z,1004.17
2017-06-26T00:48:42.344Z,1004.16
2017-06-26T00:49:37.017Z,1004.15
2017-06-26T00:50:31.356Z,1004.13
2017-06-26T00:51:32.145Z,1004.10
2017-06-26T00:52:26.339Z,1004.12
2017-06-26T00:53:26.122Z,1004.08
2017-06-26T00:54:21.180Z,1004.04
2017-06-26T00:55:16.377Z,1004.02
2017-06-26T00:56:11.697Z,1004.12
2017-06-26T00:57:05.256Z,1004.10
2017-06-26T00:57:54.381Z,1004.13
2017-06-26T00:58:48.392Z,1004.15
2017-06-26T00:59:48.360Z,1004.14
2017-06-26T01:00:37.781Z,1004.20
2017-06-26T01:01:32.488Z,1004.23
2017-06-26T01:02:27.519Z,1004.27
2017-06-26T01:03:27.623Z,1004.27
2017-06-26T01:04:21.747Z,1004.27
2017-06-26T01:05:16.670Z,1004.32
2017-06-26T01:06:12.107Z,1004.32
2017-06-26T01:07:05.712Z,1004.37
2017-06-26T01:07:59.778Z,1004.35
2017-06-26T01:08:54.841Z,1004.34
2017-06-26T01:09:54.815Z,1004.31
2017-06-26T01:10:44.124Z,1004.37
2017-06-26T01:11:32.897Z,1004.32
2017-06-26T01:12:32.969Z,1004.30
2017-06-26T01:13:27.023Z,1004.32
2017-06-26T01:14:21.099Z,1004.26
2017-06-26T01:15:15.103Z,1004.30
2017-06-26T01:16:10.579Z,1004.22
2017-06-26T01:17:10.532Z,1004.29
2017-06-26T01:18:05.216Z,1004.24
2017-06-26T01:18:59.230Z,1004.20
2017-06-26T01:19:54.306Z,1004.14
2017-06-26T01:20:48.685Z,1004.22
2017-06-26T01:21:48.528Z,1004.20
2017-06-26T01:22:49.383Z,1004.21
2017-06-26T01:23:50.452Z,1004.24
2017-06-26T01:24:45.455Z,1004.24
2017-06-26T01:25:39.854Z,1004.25
2017-06-26T01:26:27.536Z,1004.25
2017-06-26T01:27:16.725Z,1004.26
2017-06-26T01:28:10.744Z,1004.28
2017-06-26T01:29:04.842Z,1004.27
2017-06-26T01:30:04.923Z,1004.28
2017-06-26T01:30:58.803Z,1004.27
2017-06-26T01:31:53.022Z,1004.27
2017-06-26T01:32:47.794Z,1004.23
2017-06-26T01:33:42.809Z,1004.16
2017-06-26T01:34:44.085Z,1004.15
2017-06-26T01:35:39.283Z,1004.18
2017-06-26T01:36:33.297Z,1004.13
2017-06-26T01:37:21.009Z,1004.13
2017-06-26T01:38:10.086Z,1004.13
2017-06-26T01:39:05.505Z,1004.13
2017-06-26T01:39:59.106Z,1004.15
2017-06-26T01:40:53.468Z,1004.13
2017-06-26T01:41:48.357Z,1004.07
2017-06-26T01:42:42.275Z,1004.15
2017-06-26T01:43:36.699Z,1004.15
2017-06-26T01:44:31.296Z,1004.15
2017-06-26T01:45:26.730Z,1004.15
2017-06-26T01:46:20.392Z,1004.11
2017-06-26T01:47:14.607Z,1004.15
2017-06-26T01:48:08.490Z,1004.11
2017-06-26T01:49:03.953Z,1004.16
2017-06-26T01:49:51.714Z,1004.16
2017-06-26T01:50:47.012Z,1004.19
2017-06-26T01:51:40.660Z,1004.13
2017-06-26T01:52:35.933Z,1004.13
2017-06-26T01:53:30.718Z,1004.12
2017-06-26T01:54:25.063Z,1004.14
2017-06-26T01:55:25.216Z,1004.16
2017-06-26T01:56:14.320Z,1004.14
2017-06-26T01:57:07.882Z,1004.14
2017-06-26T01:57:56.908Z,1004.16
2017-06-26T01:58:45.306Z,1004.18
2017-06-26T01:59:45.986Z,1004.20
2017-06-26T02:00:35.493Z,1004.19
2017-06-26T02:01:30.500Z,1004.19
2017-06-26T02:02:24.139Z,1004.19
2017-06-26T02:03:18.276Z,1004.16
2017-06-26T02:04:07.215Z,1004.13
2017-06-26T02:05:02.312Z,1004.16
2017-06-26T02:05:56.694Z,1004.12
2017-06-26T02:06:50.316Z,1004.10
2017-06-26T02:07:39.423Z,1004.07
2017-06-26T02:08:34.415Z,1004.13
2017-06-26T02:09:28.460Z,1004.12
2017-06-26T02:10:23.845Z,1004.10
2017-06-26T02:11:13.045Z,1004.13
2017-06-26T02:12:06.777Z,1004.13
2017-06-26T02:13:02.088Z,1004.14
2017-06-26T02:14:02.363Z,1004.14
2017-06-26T02:14:50.950Z,1004.10
2017-06-26T02:15:40.175Z,1004.17
2017-06-26T02:16:35.099Z,1004.13
2017-06-26T02:17:24.245Z,1004.13
2017-06-26T02:18:19.182Z,1004.10
2017-06-26T02:19:13.355Z,1004.12
2017-06-26T02:20:13.266Z,1004.15
2017-06-26T02:21:02.436Z,1004.11
2017-06-26T02:21:51.048Z,1004.11
2017-06-26T02:22:51.527Z,1004.16
2017-06-26T02:23:45.580Z,1004.19
2017-06-26T02:24:40.608Z,1004.20
2017-06-26T02:25:34.627Z,1004.21
2017-06-26T02:26:29.476Z,1004.16
2017-06-26T02:27:18.268Z,1004.16
2017-06-26T02:28:13.275Z,1004.13
2017-06-26T02:29:07.626Z,1004.13
2017-06-26T02:30:02.654Z,1004.12
2017-06-26T02:31:02.853Z,1004.12
2017-06-26T02:31:51.871Z,1004.09
2017-06-26T02:32:45.903Z,1004.11
2017-06-26T02:33:45.999Z,1004.06
2017-06-26T02:34:35.010Z,1004.11
2017-06-26T02:35:35.182Z,1004.12
2017-06-26T02:36:29.039Z,1004.11
2017-06-26T02:37:24.142Z,1004.07
2017-06-26T02:38:19.186Z,1004.06
2017-06-26T02:39:13.289Z,1004.11
2017-06-26T02:40:13.219Z,1004.13
2017-06-26T02:41:07.355Z,1004.14
2017-06-26T02:42:01.313Z,1004.18
2017-06-26T02:42:50.314Z,1004.10
2017-06-26T02:43:44.611Z,1004.12
2017-06-26T02:44:33.420Z,1004.16
2017-06-26T02:45:21.515Z,1004.15
2017-06-26T02:46:15.473Z,1004.13
2017-06-26T02:47:10.605Z,1004.09
2017-06-26T02:48:04.540Z,1004.11
2017-06-26T02:48:59.643Z,1004.02
2017-06-26T02:49:48.717Z,1004.12
2017-06-26T02:50:43.744Z,1004.12
2017-06-26T02:51:43.839Z,1004.14
2017-06-26T02:52:31.802Z,1004.19
2017-06-26T02:53:25.790Z,1004.19
2017-06-26T02:54:19.853Z,1004.26
2017-06-26T02:55:13.888Z,1004.25
2017-06-26T02:56:07.942Z,1004.25
2017-06-26T02:57:02.027Z,1004.29
2017-06-26T02:57:51.039Z,1004.34
2017-06-26T02:58:51.109Z,1004.31
2017-06-26T02:59:46.098Z,1004.39
2017-06-26T03:00:46.187Z,1004.43
2017-06-26T03:01:35.201Z,1004.41
2017-06-26T03:02:35.185Z,1004.44
2017-06-26T03:03:24.308Z,1004.45
2017-06-26T03:04:12.262Z,1004.44
2017-06-26T03:05:01.348Z,1004.47
2017-06-26T03:05:50.380Z,1004.54
2017-06-26T03:06:38.375Z,1004.50
2017-06-26T03:07:38.538Z,1004.46
2017-06-26T03:08:32.451Z,1004.49
2017-06-26T03:09:20.550Z,1004.50
2017-06-26T03:10:15.541Z,1004.52
2017-06-26T03:11:04.690Z,1004.53
2017-06-26T03:11:53.691Z,1004.55
2017-06-26T03:12:53.734Z,1004.58
2017-06-26T03:13:42.634Z,1004.56
2017-06-26T03:14:30.410Z,1004.58
2017-06-26T03:15:25.838Z,1004.58
2017-06-26T03:16:19.881Z,1004.55
2017-06-26T03:17:19.666Z,1004.57
2017-06-26T03:18:14.681Z,1004.54
2017-06-26T03:19:04.033Z,1004.55
2017-06-26T03:19:51.744Z,1004.58
2017-06-26T03:20:41.149Z,1004.56
2017-06-26T03:21:46.760Z,1004.56
2017-06-26T03:22:41.999Z,1004.51
2017-06-26T03:23:42.140Z,1004.52
2017-06-26T03:24:37.197Z,1004.50
2017-06-26T03:25:32.393Z,1004.54
2017-06-26T03:26:21.272Z,1004.55
2017-06-26T03:27:15.366Z,1004.53
2017-06-26T03:28:09.358Z,1004.54
2017-06-26T03:29:09.458Z,1004.53
2017-06-26T03:30:04.522Z,1004.53
2017-06-26T03:30:58.316Z,1004.54
2017-06-26T03:31:58.561Z,1004.51
2017-06-26T03:32:47.642Z,1004.54
2017-06-26T03:33:36.684Z,1004.59
2017-06-26T03:34:24.562Z,1004.58
2017-06-26T03:35:13.789Z,1004.58
2017-06-26T03:36:01.499Z,1004.56
2017-06-26T03:36:49.911Z,1004.61
2017-06-26T03:37:49.814Z,1004.63
2017-06-26T03:38:44.866Z,1004.63
2017-06-26T03:39:39.660Z,1004.66
2017-06-26T03:40:28.043Z,1004.65
2017-06-26T03:41:17.113Z,1004.65
2017-06-26T03:42:11.109Z,1004.66
2017-06-26T03:43:06.206Z,1004.65
2017-06-26T03:43:54.268Z,1004.70
2017-06-26T03:44:54.173Z,1004.71
2017-06-26T03:45:48.194Z,1004.73
2017-06-26T03:46:42.341Z,1004.78
2017-06-26T03:47:37.387Z,1004.73
2017-06-26T03:48:31.449Z,1004.72
2017-06-26T03:49:25.491Z,1004.85
2017-06-26T03:50:14.556Z,1004.82
2017-06-26T03:51:08.608Z,1004.90
2017-06-26T03:52:08.527Z,1004.92
2017-06-26T03:52:56.555Z,1004.94
2017-06-26T03:53:50.628Z,1004.86
2017-06-26T03:54:45.731Z,1004.83
2017-06-26T03:55:40.934Z,1004.86
2017-06-26T03:56:40.787Z,1004.82
2017-06-26T03:57:35.794Z,1004.83
2017-06-26T03:58:30.872Z,1004.84
2017-06-26T03:59:24.891Z,1004.83
2017-06-26T04:00:24.936Z,1004.82
2017-06-26T04:01:18.856Z,1004.82
2017-06-26T04:02:18.975Z,1004.80
2017-06-26T04:03:13.999Z,1004.88
2017-06-26T04:04:08.063Z,1004.85
2017-06-26T04:05:09.114Z,1004.83
2017-06-26T04:05:57.149Z,1004.76
2017-06-26T04:06:45.176Z,1004.81
2017-06-26T04:07:39.202Z,1004.79
2017-06-26T04:08:28.278Z,1004.77
2017-06-26T04:09:17.296Z,1004.80
2017-06-26T04:10:06.307Z,1004.77
2017-06-26T04:10:54.403Z,1004.80
2017-06-26T04:11:54.455Z,1004.82
2017-06-26T04:12:48.477Z,1004.86
2017-06-26T04:13:43.459Z,1004.85
2017-06-26T04:14:31.539Z,1004.87
2017-06-26T04:15:19.590Z,1004.85
2017-06-26T04:16:19.688Z,1004.93
2017-06-26T04:17:14.703Z,1004.97
2017-06-26T04:18:08.714Z,1004.95
2017-06-26T04:19:08.774Z,1005.00
2017-06-26T04:20:03.852Z,1005.00
2017-06-26T04:20:52.767Z,1005.02
2017-06-26T04:21:40.891Z,1004.98
2017-06-26T04:22:28.836Z,1005.02
2017-06-26T04:23:22.601Z,1004.99
2017-06-26T04:24:18.057Z,1005.02
2017-06-26T04:25:12.085Z,1005.06
2017-06-26T04:26:12.140Z,1005.06
2017-06-26T04:27:07.184Z,1005.13
2017-06-26T04:28:02.274Z,1005.10
2017-06-26T04:28:56.242Z,1005.09
2017-06-26T04:29:56.297Z,1005.06
2017-06-26T04:30:56.326Z,1005.08
2017-06-26T04:32:02.379Z,1005.07
2017-06-26T04:32:57.425Z,1005.07
2017-06-26T04:33:51.476Z,1005.01
2017-06-26T04:34:52.445Z,1005.02
2017-06-26T04:35:47.513Z,1005.02
2017-06-26T04:36:36.541Z,1005.02
2017-06-26T04:37:24.555Z,1005.04
2017-06-26T04:38:12.540Z,1005.07
2017-06-26T04:39:01.677Z,1005.11
2017-06-26T04:39:49.715Z,1005.10
2017-06-26T04:40:37.997Z,1005.13
2017-06-26T04:41:25.815Z,1005.14
2017-06-26T04:42:25.887Z,1005.14
2017-06-26T04:43:14.908Z,1005.14
2017-06-26T04:44:10.056Z,1005.14
2017-06-26T04:45:03.996Z,1005.14
2017-06-26T04:46:04.045Z,1005.16
2017-06-26T04:47:04.095Z,1005.17
2017-06-26T04:48:05.117Z,1005.11
2017-06-26T04:49:00.131Z,1005.13
2017-06-26T04:49:54.209Z,1005.15
2017-06-26T04:50:54.241Z,1005.20
2017-06-26T04:51:48.283Z,1005.20
2017-06-26T04:52:49.292Z,1005.20
2017-06-26T04:53:50.342Z,1005.21
2017-06-26T04:54:50.366Z,1005.19
2017-06-26T04:55:50.461Z,1005.17
2017-06-26T04:56:50.407Z,1005.15
2017-06-26T04:57:50.451Z,1005.17
2017-06-26T04:58:44.515Z,1005.18
2017-06-26T04:59:45.538Z,1005.22
2017-06-26T05:00:45.580Z,1005.22
2017-06-26T05:01:40.810Z,1005.21
2017-06-26T05:02:35.648Z,1005.24
2017-06-26T05:03:35.670Z,1005.21
2017-06-26T05:04:30.695Z,1005.25
2017-06-26T05:05:25.731Z,1005.29
2017-06-26T05:06:13.761Z,1005.24
2017-06-26T05:07:01.954Z,1005.25
2017-06-26T05:07:49.978Z,1005.27
2017-06-26T05:08:44.010Z,1005.23
2017-06-26T05:09:33.021Z,1005.31
2017-06-26T05:10:21.134Z,1005.30
2017-06-26T05:11:10.136Z,1005.25
2017-06-26T05:11:58.229Z,1005.29
2017-06-26T05:12:52.230Z,1005.30
2017-06-26T05:13:46.254Z,1005.31
2017-06-26T05:14:46.307Z,1005.31
2017-06-26T05:15:41.327Z,1005.28
2017-06-26T05:16:35.355Z,1005.26
2017-06-26T05:17:30.392Z,1005.29
2017-06-26T05:18:24.632Z,1005.31
2017-06-26T05:19:12.497Z,1005.31
2017-06-26T05:20:00.597Z,1005.34
2017-06-26T05:20:54.612Z,1005.30
2017-06-26T05:21:42.637Z,1005.34
2017-06-26T05:22:42.678Z,1005.32
2017-06-26T05:23:36.686Z,1005.31
2017-06-26T05:24:36.771Z,1005.33
2017-06-26T05:25:24.833Z,1005.35
2017-06-26T05:26:18.887Z,1005.32
2017-06-26T05:27:06.911Z,1005.34
2017-06-26T05:27:54.962Z,1005.34
2017-06-26T05:28:48.961Z,1005.39
2017-06-26T05:29:43.046Z,1005.43
2017-06-26T05:30:43.084Z,1005.41
2017-06-26T05:31:43.088Z,1005.44
2017-06-26T05:32:43.187Z,1005.41
2017-06-26T05:33:43.157Z,1005.39
2017-06-26T05:34:43.353Z,1005.34
2017-06-26T05:35:37.342Z,1005.43
2017-06-26T05:36:31.344Z,1005.45
2017-06-26T05:37:31.394Z,1005.48
2017-06-26T05:38:31.400Z,1005.53
2017-06-26T05:39:25.426Z,1005.46
2017-06-26T05:40:26.527Z,1005.45
2017-06-26T05:41:20.523Z,1005.46
2017-06-26T05:42:14.573Z,1005.53
2017-06-26T05:43:08.635Z,1005.54
2017-06-26T05:44:02.619Z,1005.52
2017-06-26T05:45:02.738Z,1005.63
2017-06-26T05:45:51.783Z,1005.62
2017-06-26T05:46:39.797Z,1005.65
2017-06-26T05:47:39.838Z,1005.60
2017-06-26T05:48:39.891Z,1005.63
2017-06-26T05:49:33.913Z,1005.62
2017-06-26T05:50:27.959Z,1005.61
2017-06-26T05:51:23.045Z,1005.67
2017-06-26T05:52:11.030Z,1005.67
2017-06-26T05:52:59.073Z,1005.66
2017-06-26T05:53:59.121Z,1005.67
2017-06-26T05:54:54.149Z,1005.69
2017-06-26T05:55:54.200Z,1005.68
2017-06-26T05:56:49.265Z,1005.68
2017-06-26T05:57:44.307Z,1005.69
2017-06-26T05:58:38.298Z,1005.72
2017-06-26T05:59:38.299Z,1005.68
2017-06-26T06:00:33.662Z,1005.72
2017-06-26T06:01:27.473Z,1005.79
2017-06-26T06:02:15.579Z,1005.82
2017-06-26T06:03:03.522Z,1005.83
2017-06-26T06:03:57.651Z,1005.91
2017-06-26T06:04:52.708Z,1005.98
2017-06-26T06:05:46.287Z,1005.87
2017-06-26T06:06:41.752Z,1005.87
2017-06-26T06:07:36.810Z,1005.79
2017-06-26T06:08:30.718Z,1005.82
2017-06-26T06:09:19.744Z,1005.83
2017-06-26T06:10:07.866Z,1005.85
2017-06-26T06:11:01.986Z,1005.86
2017-06-26T06:11:49.937Z,1005.81
2017-06-26T06:12:49.693Z,1005.84
2017-06-26T06:13:45.040Z,1005.86
2017-06-26T06:14:34.085Z,1005.84
2017-06-26T06:15:29.300Z,1005.90
2017-06-26T06:16:29.200Z,1005.88
2017-06-26T06:17:23.281Z,1005.89
2017-06-26T06:18:12.331Z,1005.87
2017-06-26T06:19:06.298Z,1005.90
2017-06-26T06:19:55.400Z,1005.91
2017-06-26T06:20:50.464Z,1005.92
2017-06-26T06:21:45.623Z,1005.87
2017-06-26T06:22:34.588Z,1005.89
2017-06-26T06:23:34.651Z,1005.87
2017-06-26T06:24:23.623Z,1005.88
2017-06-26T06:25:18.720Z,1005.83
2017-06-26T06:26:07.718Z,1005.78
2017-06-26T06:27:02.727Z,1005.82
2017-06-26T06:27:50.806Z,1005.83
2017-06-26T06:28:44.876Z,1005.82
2017-06-26T06:29:33.895Z,1005.95
2017-06-26T06:30:34.018Z,1006.02
2017-06-26T06:31:23.033Z,1006.00
2017-06-26T06:32:18.018Z,1005.95
2017-06-26T06:33:12.064Z,1005.90
2017-06-26T06:34:12.198Z,1005.89
2017-06-26T06:35:06.164Z,1005.84
2017-06-26T06:35:55.231Z,1005.89
2017-06-26T06:36:55.254Z,1005.92
2017-06-26T06:37:49.346Z,1005.97
2017-06-26T06:38:43.408Z,1005.94
2017-06-26T06:39:32.508Z,1006.01
2017-06-26T06:40:27.439Z,1006.00
2017-06-26T06:41:16.502Z,1005.92
2017-06-26T06:42:05.552Z,1006.07
2017-06-26T06:43:00.655Z,1006.03
2017-06-26T06:43:48.666Z,1006.07
2017-06-26T06:44:36.712Z,1006.13
2017-06-26T06:45:30.796Z,1006.18
2017-06-26T06:46:25.854Z,1006.20
2017-06-26T06:47:14.889Z,1006.16
2017-06-26T06:48:02.894Z,1006.13
2017-06-26T06:48:50.992Z,1006.08
2017-06-26T06:49:45.044Z,1006.06
2017-06-26T06:50:45.101Z,1006.04
2017-06-26T06:51:39.059Z,1006.05
2017-06-26T06:52:39.110Z,1005.99
2017-06-26T06:53:27.225Z,1006.09
2017-06-26T06:54:21.267Z,1006.10
2017-06-26T06:55:10.385Z,1006.04
2017-06-26T06:55:58.329Z,1006.10
2017-06-26T06:56:58.393Z,1006.07
2017-06-26T06:57:47.481Z,1006.07
2017-06-26T06:58:36.481Z,1006.19
2017-06-26T06:59:24.530Z,1006.16
2017-06-26T07:00:18.624Z,1006.17
2017-06-26T07:01:06.636Z,1006.03
2017-06-26T07:02:06.702Z,1005.99
2017-06-26T07:02:54.701Z,1006.00
2017-06-26T07:03:42.744Z,1006.00
2017-06-26T07:04:36.835Z,1005.98
2017-06-26T07:05:32.246Z,1005.92
2017-06-26T07:06:31.901Z,1005.93
2017-06-26T07:07:19.928Z,1005.89
2017-06-26T07:08:14.026Z,1005.92
2017-06-26T07:09:08.091Z,1005.93
2017-06-26T07:09:57.109Z,1006.03
2017-06-26T07:10:45.714Z,1006.13
2017-06-26T07:11:33.198Z,1006.08
2017-06-26T07:12:27.231Z,1006.16
2017-06-26T07:13:27.306Z,1006.13
2017-06-26T07:14:22.276Z,1006.13
2017-06-26T07:15:23.387Z,1006.27
2017-06-26T07:16:23.737Z,1006.28
2017-06-26T07:17:17.521Z,1006.24
2017-06-26T07:18:17.504Z,1006.38
2017-06-26T07:19:11.578Z,1006.38
2017-06-26T07:19:59.623Z,1006.36
2017-06-26T07:20:54.692Z,1006.33
2017-06-26T07:21:48.709Z,1006.29
2017-06-26T07:22:48.707Z,1006.32
2017-06-26T07:23:43.853Z,1006.25
2017-06-26T07:24:38.831Z,1006.25
2017-06-26T07:25:32.948Z,1006.21
2017-06-26T07:26:33.910Z,1006.14
2017-06-26T07:27:28.001Z,1006.19
2017-06-26T07:28:21.996Z,1006.19
2017-06-26T07:29:16.001Z,1006.27
2017-06-26T07:30:10.047Z,1006.31
2017-06-26T07:31:05.093Z,1006.37
2017-06-26T07:31:59.196Z,1006.33
2017-06-26T07:32:59.234Z,1006.31
2017-06-26T07:33:54.280Z,1006.39
2017-06-26T07:34:43.340Z,1006.34
2017-06-26T07:35:37.485Z,1006.34
2017-06-26T07:36:31.490Z,1006.26
2017-06-26T07:37:26.523Z,1006.35
2017-06-26T07:38:21.586Z,1006.34
2017-06-26T07:39:15.604Z,1006.30
2017-06-26T07:40:10.713Z,1006.21
2017-06-26T07:41:04.710Z,1006.17
2017-06-26T07:41:59.728Z,1006.22
2017-06-26T07:43:00.813Z,1006.37
2017-06-26T07:43:54.898Z,1006.36
2017-06-26T07:44:42.909Z,1006.33
2017-06-26T07:45:43.894Z,1006.40
2017-06-26T07:46:44.013Z,1006.36
2017-06-26T07:47:38.039Z,1006.42
2017-06-26T07:48:38.115Z,1006.31
2017-06-26T07:49:32.130Z,1006.29
2017-06-26T07:50:32.192Z,1006.55
2017-06-26T07:51:27.183Z,1006.34
2017-06-26T07:52:22.323Z,1006.33
2017-06-26T07:53:16.275Z,1006.47
2017-06-26T07:54:10.415Z,1006.28
2017-06-26T07:55:04.497Z,1006.31
2017-06-26T07:55:58.510Z,1006.57
2017-06-26T07:56:52.555Z,1006.61
2017-06-26T07:57:53.640Z,1006.44
2017-06-26T07:58:53.635Z,1006.57
2017-06-26T07:59:42.695Z,1006.57
2017-06-26T08:00:42.846Z,1006.32
2017-06-26T08:01:37.821Z,1006.29
2017-06-26T08:02:26.827Z,1006.38
2017-06-26T08:03:26.912Z,1006.49
2017-06-26T08:04:26.941Z,1006.46
2017-06-26T08:05:20.986Z,1006.55
2017-06-26T08:06:16.097Z,1006.67
2017-06-26T08:07:04.146Z,1006.89
2017-06-26T08:08:04.159Z,1006.66
2017-06-26T08:08:59.225Z,1006.59
2017-06-26T08:09:53.291Z,1006.69
2017-06-26T08:10:53.352Z,1006.80
2017-06-26T08:11:53.416Z,1006.79
2017-06-26T08:12:47.464Z,1006.75
2017-06-26T08:13:36.558Z,1006.72
2017-06-26T08:14:36.542Z,1006.65
2017-06-26T08:15:31.578Z,1006.55
2017-06-26T08:16:26.648Z,1006.64
2017-06-26T08:17:20.672Z,1006.66
2017-06-26T08:18:14.731Z,1006.55
2017-06-26T08:19:09.810Z,1006.51
2017-06-26T08:20:09.844Z,1006.54
2017-06-26T08:21:03.921Z,1006.55
2017-06-26T08:21:58.970Z,1006.67
2017-06-26T08:22:53.078Z,1006.85
2017-06-26T08:23:41.050Z,1006.70
2017-06-26T08:24:29.147Z,1006.75
2017-06-26T08:25:23.228Z,1006.64
2017-06-26T08:26:17.275Z,1006.68
2017-06-26T08:27:12.307Z,1006.63
2017-06-26T08:28:06.384Z,1006.62
2017-06-26T08:28:54.445Z,1006.78
2017-06-26T08:29:49.535Z,1006.71
2017-06-26T08:30:44.717Z,1006.62
2017-06-26T08:31:39.535Z,1006.45
2017-06-26T08:32:33.655Z,1006.86
2017-06-26T08:33:28.689Z,1006.49
2017-06-26T08:34:16.713Z,1006.64
2017-06-26T08:35:10.773Z,1006.69
2017-06-26T08:36:05.866Z,1006.74
2017-06-26T08:36:59.898Z,1006.72
2017-06-26T08:37:53.953Z,1006.89
2017-06-26T08:38:54.990Z,1006.83
2017-06-26T08:39:50.082Z,1006.80
2017-06-26T08:40:44.178Z,1006.76
2017-06-26T08:41:38.268Z,1006.76
2017-06-26T08:42:32.227Z,1006.45
2017-06-26T08:43:20.337Z,1006.79
2017-06-26T08:44:15.425Z,1006.80
2017-06-26T08:45:09.423Z,1006.51
2017-06-26T08:46:04.530Z,1006.45
2017-06-26T08:46:52.608Z,1006.57
2017-06-26T08:47:46.639Z,1006.62
2017-06-26T08:48:46.702Z,1006.85
2017-06-26T08:49:40.752Z,1006.99
2017-06-26T08:50:28.867Z,1006.91
2017-06-26T08:51:23.137Z,1007.02
2017-06-26T08:52:16.917Z,1006.86
2017-06-26T08:53:11.985Z,1007.18
2017-06-26T08:54:12.056Z,1007.12
2017-06-26T08:55:00.098Z,1006.89
2017-06-26T08:55:54.146Z,1006.93
2017-06-26T08:56:42.262Z,1006.88
2017-06-26T08:57:31.279Z,1007.23
2017-06-26T08:58:31.352Z,1007.26
2017-06-26T08:59:25.395Z,1007.07
2017-06-26T09:00:20.483Z,1006.96
2017-06-26T09:01:14.514Z,1006.93
2017-06-26T09:02:04.881Z,1006.68
2017-06-26T09:02:57.643Z,1006.63
2017-06-26T09:03:52.681Z,1006.65
2017-06-26T09:04:46.781Z,1006.70
2017-06-26T09:05:40.839Z,1006.70
2017-06-26T09:06:34.858Z,1007.09
2017-06-26T09:07:34.934Z,1006.99
2017-06-26T09:08:28.989Z,1007.13
2017-06-26T09:09:24.083Z,1007.10
2017-06-26T09:10:19.068Z,1006.97
2017-06-26T09:11:08.187Z,1006.88
2017-06-26T09:11:57.221Z,1007.30
2017-06-26T09:12:46.587Z,1007.22
2017-06-26T09:13:35.299Z,1006.67
2017-06-26T09:14:29.387Z,1006.69
2017-06-26T09:15:24.579Z,1006.91
2017-06-26T09:16:24.498Z,1006.63
2017-06-26T09:17:19.560Z,1006.70
2017-06-26T09:18:14.654Z,1007.15
2017-06-26T09:19:08.715Z,1006.75
2017-06-26T09:20:02.791Z,1007.07
2017-06-26T09:20:56.798Z,1007.03
2017-06-26T09:21:50.910Z,1007.12
2017-06-26T09:22:44.874Z,1007.30
2017-06-26T09:23:39.013Z,1007.35
2017-06-26T09:24:28.050Z,1007.17
2017-06-26T09:25:17.087Z,1007.09
2017-06-26T09:26:11.121Z,1007.17
2017-06-26T09:27:11.225Z,1007.03
2017-06-26T09:27:59.263Z,1007.09
2017-06-26T09:28:48.330Z,1006.98
2017-06-26T09:29:43.391Z,1007.01
2017-06-26T09:30:32.443Z,1007.36
2017-06-26T09:31:21.521Z,1007.35
2017-06-26T09:32:09.589Z,1007.38
2017-06-26T09:33:04.652Z,1007.14
2017-06-26T09:33:58.704Z,1006.90
2017-06-26T09:34:46.784Z,1006.85
2017-06-26T09:35:41.866Z,1006.65
2017-06-26T09:36:35.887Z,1006.97
2017-06-26T09:37:29.949Z,1007.12
2017-06-26T09:38:24.006Z,1006.52
2017-06-26T09:39:19.123Z,1006.62
2017-06-26T09:40:07.203Z,1006.51
2017-06-26T09:40:56.220Z,1006.55
2017-06-26T09:41:51.327Z,1006.95
2017-06-26T09:42:46.375Z,1006.91
2017-06-26T09:43:35.669Z,1006.99
2017-06-26T09:44:24.405Z,1006.58
2017-06-26T09:45:19.545Z,1006.86
2017-06-26T09:46:07.615Z,1006.85
2017-06-26T09:47:02.705Z,1006.85
2017-06-26T09:47:51.747Z,1006.78
2017-06-26T09:48:46.798Z,1006.82
2017-06-26T09:49:40.862Z,1006.85
2017-06-26T09:50:34.919Z,1006.72
2017-06-26T09:51:23.028Z,1006.82
2017-06-26T09:52:11.030Z,1006.71
2017-06-26T09:53:11.135Z,1006.75
2017-06-26T09:53:59.197Z,1006.73
2017-06-26T09:54:54.503Z,1006.78
2017-06-26T09:55:42.550Z,1006.79
2017-06-26T09:56:36.605Z,1006.65
2017-06-26T09:57:36.652Z,1006.77
2017-06-26T09:58:30.742Z,1006.96
2017-06-26T09:59:24.766Z,1006.84
2017-06-26T10:00:19.650Z,1006.81
2017-06-26T10:01:13.645Z,1006.59
2017-06-26T10:02:08.777Z,1006.44
2017-06-26T10:02:56.814Z,1006.75
2017-06-26T10:03:44.873Z,1006.81
2017-06-26T10:04:38.914Z,1006.75
2017-06-26T10:05:32.943Z,1006.85
2017-06-26T10:06:22.025Z,1006.81
2017-06-26T10:07:16.096Z,1006.83
2017-06-26T10:08:05.149Z,1006.88
2017-06-26T10:08:59.268Z,1006.86
2017-06-26T10:09:59.283Z,1006.63
2017-06-26T10:10:53.316Z,1006.83
2017-06-26T10:11:53.399Z,1006.69
2017-06-26T10:12:48.562Z,1007.14
2017-06-26T10:13:42.700Z,1007.06
2017-06-26T10:14:42.672Z,1007.03
2017-06-26T10:15:31.716Z,1006.98
2017-06-26T10:16:25.773Z,1006.65
2017-06-26T10:17:19.860Z,1006.84
2017-06-26T10:18:07.909Z,1006.90
2017-06-26T10:19:01.995Z,1007.50
2017-06-26T10:19:56.041Z,1007.15
2017-06-26T10:20:50.139Z,1007.43
2017-06-26T10:21:45.130Z,1007.39
2017-06-26T10:22:39.217Z,1007.24
2017-06-26T10:23:27.255Z,1007.17
2017-06-26T10:24:22.321Z,1007.01
2017-06-26T10:25:16.383Z,1007.21
2017-06-26T10:26:11.477Z,1007.02
2017-06-26T10:27:12.524Z,1006.76
2017-06-26T10:28:06.650Z,1007.17
2017-06-26T10:28:54.686Z,1006.96
2017-06-26T10:29:48.797Z,1007.05
2017-06-26T10:30:42.841Z,1006.64
2017-06-26T10:31:36.852Z,1006.87
2017-06-26T10:32:30.894Z,1007.04
2017-06-26T10:33:19.967Z,1007.04
2017-06-26T10:34:09.217Z,1007.02
2017-06-26T10:35:04.119Z,1007.07
2017-06-26T10:35:58.115Z,1007.15
2017-06-26T10:36:52.155Z,1007.03
2017-06-26T10:37:47.237Z,1007.16
2017-06-26T10:38:36.347Z,1006.73
2017-06-26T10:39:30.730Z,1006.80
2017-06-26T10:40:19.376Z,1006.91
2017-06-26T10:41:19.527Z,1006.92
2017-06-26T10:42:19.547Z,1007.05
2017-06-26T10:43:07.595Z,1007.03
2017-06-26T10:44:01.693Z,1007.01
2017-06-26T10:44:50.755Z,1007.47
2017-06-26T10:45:50.830Z,1007.42
2017-06-26T10:46:44.902Z,1007.28
2017-06-26T10:47:44.946Z,1007.26
2017-06-26T10:48:33.987Z,1007.01
2017-06-26T10:49:28.084Z,1007.07
2017-06-26T10:50:23.134Z,1006.98
2017-06-26T10:51:12.203Z,1007.15
2017-06-26T10:52:01.200Z,1007.43
2017-06-26T10:52:56.284Z,1007.07